createdAt,value
2022-10-16T00:01:26.706Z,13.49
2022-10-16T00:03:53.335Z,12.99
2022-10-16T00:06:20.643Z,13.25
2022-10-16T00:08:47.693Z,11.65
2022-10-16T00:11:24.140Z,13.69
2022-10-16T00:13:51.772Z,13.21
2022-10-16T00:16:18.566Z,12.98
2022-10-16T00:18:45.236Z,11.87
2022-10-16T00:21:19.721Z,13.79
2022-10-16T00:23:46.626Z,13.01
2022-10-16T00:26:14.909Z,13.70
2022-10-16T00:28:41.568Z,13.48
2022-10-16T00:31:10.184Z,12.73
2022-10-16T00:33:38.484Z,13.60
2022-10-16T00:36:06.029Z,11.84
2022-10-16T00:38:32.726Z,13.63
2022-10-16T00:40:59.329Z,13.32
2022-10-16T00:43:47.286Z,13.84
2022-10-16T00:46:38.691Z,13.68
2022-10-16T00:49:16.173Z,13.38
2022-10-16T00:51:46.077Z,13.74
2022-10-16T00:54:18.820Z,12.99
2022-10-16T00:56:45.716Z,12.81
2022-10-16T00:59:17.573Z,11.84
2022-10-16T01:01:44.160Z,12.97
2022-10-16T01:04:10.884Z,12.05
2022-10-16T01:06:54.693Z,12.19
2022-10-16T01:10:06.249Z,13.60
2022-10-16T01:12:53.284Z,13.06
2022-10-16T01:15:27.935Z,12.84
2022-10-16T01:18:11.005Z,13.47
2022-10-16T01:20:46.383Z,11.46
2022-10-16T01:23:25.037Z,13.40
2022-10-16T01:26:15.354Z,13.39
2022-10-16T01:28:47.088Z,13.28
2022-10-16T01:31:13.736Z,11.45
2022-10-16T01:33:43.790Z,12.95
2022-10-16T01:36:16.034Z,12.98
2022-10-16T01:38:42.622Z,13.40
2022-10-16T01:41:12.456Z,12.92
2022-10-16T01:43:45.032Z,13.07
2022-10-16T01:46:11.716Z,11.94
2022-10-16T01:48:38.365Z,11.55
2022-10-16T01:51:07.853Z,12.39
2022-10-16T01:53:34.471Z,13.03
2022-10-16T01:56:01.052Z,11.60
2022-10-16T01:58:27.923Z,13.23
2022-10-16T02:00:54.743Z,13.26
2022-10-16T02:03:21.902Z,12.30
2022-10-16T02:05:48.556Z,13.47
2022-10-16T02:08:15.197Z,11.30
2022-10-16T02:10:41.829Z,13.26
2022-10-16T02:13:15.367Z,13.25
2022-10-16T02:15:42.104Z,13.41
2022-10-16T02:18:08.931Z,13.08
2022-10-16T02:20:39.593Z,13.26
2022-10-16T02:23:06.311Z,12.72
2022-10-16T02:25:35.938Z,11.78
2022-10-16T02:28:09.715Z,12.90
2022-10-16T02:30:52.235Z,13.40
2022-10-16T02:33:19.009Z,12.66
2022-10-16T02:35:46.183Z,12.89
2022-10-16T02:38:13.027Z,12.38
2022-10-16T02:40:39.666Z,12.58
2022-10-16T02:43:06.529Z,12.25
2022-10-16T02:45:33.141Z,11.79
2022-10-16T02:47:59.752Z,12.81
2022-10-16T02:50:26.304Z,12.16
2022-10-16T02:52:52.904Z,11.65
2022-10-16T02:55:19.645Z,12.38
2022-10-16T02:57:46.462Z,12.43
2022-10-16T03:00:14.605Z,12.76
2022-10-16T03:02:41.259Z,12.62
2022-10-16T03:05:08.330Z,12.60
2022-10-16T03:07:35.006Z,13.00
2022-10-16T03:10:01.640Z,13.02
2022-10-16T03:12:29.090Z,12.96
2022-10-16T03:14:57.570Z,13.26
2022-10-16T03:17:24.922Z,13.17
2022-10-16T03:19:51.730Z,13.37
2022-10-16T03:22:18.337Z,13.20
2022-10-16T03:24:44.917Z,12.86
2022-10-16T03:27:11.471Z,13.60
2022-10-16T03:29:38.048Z,12.97
2022-10-16T03:32:04.797Z,13.27
2022-10-16T03:34:31.377Z,12.99
2022-10-16T03:36:57.976Z,13.20
2022-10-16T03:39:24.874Z,13.35
2022-10-16T03:41:51.610Z,13.19
2022-10-16T03:44:18.175Z,12.06
2022-10-16T03:46:44.764Z,12.82
2022-10-16T03:49:11.337Z,12.24
2022-10-16T03:51:38.441Z,12.31
2022-10-16T03:54:05.011Z,13.78
2022-10-16T03:56:31.599Z,13.17
2022-10-16T03:58:58.333Z,12.75
2022-10-16T04:01:26.401Z,13.62
2022-10-16T04:03:52.982Z,13.92
2022-10-16T04:06:19.725Z,13.69
2022-10-16T04:08:46.481Z,12.48
2022-10-16T04:11:13.172Z,13.84
2022-10-16T04:13:39.727Z,13.18
2022-10-16T04:16:06.642Z,13.85
2022-10-16T04:18:33.390Z,14.00
2022-10-16T04:21:04.776Z,13.60
2022-10-16T04:23:31.575Z,12.66
2022-10-16T04:25:58.166Z,13.47
2022-10-16T04:28:24.762Z,12.70
2022-10-16T04:30:51.710Z,13.94
2022-10-16T04:33:19.382Z,13.55
2022-10-16T04:35:45.984Z,13.28
2022-10-16T04:38:12.590Z,13.88
2022-10-16T04:40:39.393Z,13.42
2022-10-16T04:43:06.315Z,13.25
2022-10-16T04:45:32.951Z,13.52
2022-10-16T04:47:59.958Z,13.04
2022-10-16T04:50:26.703Z,13.75
2022-10-16T04:52:53.324Z,13.47
2022-10-16T04:55:20.040Z,13.00
2022-10-16T04:57:46.646Z,13.87
2022-10-16T05:00:13.756Z,13.90
2022-10-16T05:02:40.528Z,13.13
2022-10-16T05:05:07.967Z,13.72
2022-10-16T05:07:34.590Z,12.82
2022-10-16T05:10:01.330Z,12.90
2022-10-16T05:12:27.959Z,12.97
2022-10-16T05:14:59.361Z,13.62
2022-10-16T05:17:27.004Z,12.54
2022-10-16T05:19:53.860Z,13.32
2022-10-16T05:22:20.620Z,13.01
2022-10-16T05:24:47.169Z,13.00
2022-10-16T05:27:19.770Z,13.03
2022-10-16T05:29:49.557Z,13.54
2022-10-16T05:32:16.853Z,13.73
2022-10-16T05:34:43.675Z,13.11
2022-10-16T05:37:10.590Z,11.72
2022-10-16T05:39:38.111Z,12.41
2022-10-16T05:42:05.471Z,13.27
2022-10-16T05:44:32.061Z,13.48
2022-10-16T05:46:58.792Z,13.38
2022-10-16T05:49:25.470Z,13.51
2022-10-16T05:51:52.218Z,13.16
2022-10-16T05:54:18.805Z,13.37
2022-10-16T05:56:45.454Z,13.48
2022-10-16T05:59:12.026Z,13.73
2022-10-16T06:01:38.578Z,13.88
2022-10-16T06:04:05.394Z,12.67
2022-10-16T06:06:32.270Z,13.67
2022-10-16T06:08:59.116Z,12.32
2022-10-16T06:11:27.614Z,13.08
2022-10-16T06:13:55.705Z,13.93
2022-10-16T06:16:22.349Z,13.91
2022-10-16T06:18:49.298Z,14.04
2022-10-16T06:21:18.713Z,13.76
2022-10-16T06:23:47.136Z,12.60
2022-10-16T06:26:15.277Z,13.70
2022-10-16T06:28:42.065Z,14.62
2022-10-16T06:31:09.573Z,14.32
2022-10-16T06:33:36.843Z,14.60
2022-10-16T06:36:11.809Z,13.97
2022-10-16T06:38:38.368Z,14.77
2022-10-16T06:41:05.695Z,14.55
2022-10-16T06:43:38.275Z,14.79
2022-10-16T06:46:05.868Z,14.51
2022-10-16T06:48:32.451Z,14.75
2022-10-16T06:51:15.981Z,14.65
2022-10-16T06:54:05.396Z,13.99
2022-10-16T06:56:32.545Z,15.08
2022-10-16T06:58:59.542Z,15.10
2022-10-16T07:01:26.209Z,15.35
2022-10-16T07:03:52.904Z,15.28
2022-10-16T07:06:21.140Z,15.47
2022-10-16T07:08:48.198Z,15.84
2022-10-16T07:11:16.729Z,15.56
2022-10-16T07:13:52.979Z,16.10
2022-10-16T07:16:23.513Z,16.08
2022-10-16T07:18:50.503Z,16.72
2022-10-16T07:21:21.539Z,16.97
2022-10-16T07:23:52.236Z,18.55
2022-10-16T07:26:18.793Z,19.34
2022-10-16T07:28:45.442Z,20.10
2022-10-16T07:31:16.921Z,21.57
2022-10-16T07:33:45.413Z,22.42
2022-10-16T07:36:16.599Z,23.63
2022-10-16T07:38:43.749Z,23.55
2022-10-16T07:41:15.432Z,24.08
2022-10-16T07:43:46.086Z,22.74
2022-10-16T07:46:13.068Z,23.01
2022-10-16T07:48:39.687Z,22.27
2022-10-16T07:51:07.185Z,21.36
2022-10-16T07:53:33.926Z,20.53
2022-10-16T07:56:01.330Z,20.24
2022-10-16T07:58:31.243Z,19.45
2022-10-16T08:00:58.141Z,18.84
2022-10-16T08:03:27.812Z,18.62
2022-10-16T08:05:54.459Z,18.04
2022-10-16T08:08:21.058Z,18.02
2022-10-16T08:10:47.680Z,16.15
2022-10-16T08:13:16.523Z,17.30
2022-10-16T08:15:46.351Z,17.55
2022-10-16T08:18:13.785Z,17.52
2022-10-16T08:20:42.355Z,17.69
2022-10-16T08:23:10.165Z,18.13
2022-10-16T08:25:37.425Z,18.46
2022-10-16T08:28:07.868Z,18.67
2022-10-16T08:30:34.538Z,18.59
2022-10-16T08:33:01.235Z,18.94
2022-10-16T08:35:27.886Z,18.48
2022-10-16T08:37:54.507Z,19.21
2022-10-16T08:40:34.252Z,18.90
2022-10-16T08:43:09.865Z,19.45
2022-10-16T08:45:43.278Z,19.49
2022-10-16T08:48:22.477Z,19.02
2022-10-16T08:50:49.059Z,19.35
2022-10-16T08:53:49.581Z,18.21
2022-10-16T08:56:16.162Z,18.94
2022-10-16T08:58:51.279Z,18.96
2022-10-16T09:01:20.921Z,18.62
2022-10-16T09:04:02.638Z,18.97
2022-10-16T09:07:03.654Z,18.43
2022-10-16T09:09:50.517Z,18.68
2022-10-16T09:12:38.453Z,18.51
2022-10-16T09:15:12.521Z,18.37
2022-10-16T09:18:00.259Z,17.37
2022-10-16T09:20:31.136Z,17.97
2022-10-16T09:23:09.853Z,17.85
2022-10-16T09:25:36.409Z,17.29
2022-10-16T09:28:02.951Z,16.24
2022-10-16T09:30:30.455Z,16.77
2022-10-16T09:32:58.533Z,17.55
2022-10-16T09:35:42.610Z,17.55
2022-10-16T09:38:09.574Z,17.50
2022-10-16T09:40:40.038Z,17.00
2022-10-16T09:43:30.581Z,17.88
2022-10-16T09:45:59.194Z,17.11
2022-10-16T09:48:33.024Z,17.67
2022-10-16T09:51:01.078Z,17.69
2022-10-16T09:53:44.590Z,17.23
2022-10-16T09:56:14.869Z,17.56
2022-10-16T09:58:45.732Z,17.96
2022-10-16T10:01:14.160Z,18.19
2022-10-16T10:03:41.940Z,17.86
2022-10-16T10:06:19.533Z,18.15
2022-10-16T10:08:56.258Z,17.97
2022-10-16T10:11:45.587Z,18.36
2022-10-16T10:14:37.614Z,18.37
2022-10-16T10:17:07.045Z,18.39
2022-10-16T10:19:53.423Z,17.94
2022-10-16T10:22:33.562Z,17.68
2022-10-16T10:25:09.386Z,18.43
2022-10-16T10:27:51.415Z,18.24
2022-10-16T10:30:25.437Z,18.38
2022-10-16T10:33:26.077Z,18.13
2022-10-16T10:36:00.713Z,18.53
2022-10-16T10:38:47.731Z,18.21
2022-10-16T10:41:31.365Z,18.52
2022-10-16T10:44:27.675Z,18.90
2022-10-16T10:46:58.782Z,18.52
2022-10-16T10:49:53.912Z,19.04
2022-10-16T10:52:32.753Z,19.48
2022-10-16T10:55:08.105Z,19.58
2022-10-16T10:57:44.404Z,19.66
2022-10-16T11:00:29.950Z,19.74
2022-10-16T11:03:09.650Z,19.77
2022-10-16T11:05:51.370Z,19.62
2022-10-16T11:08:23.649Z,19.38
2022-10-16T11:10:59.867Z,19.71
2022-10-16T11:13:43.481Z,20.03
2022-10-16T11:16:38.683Z,20.13
2022-10-16T11:19:14.872Z,20.11
2022-10-16T11:21:45.914Z,20.18
2022-10-16T11:24:35.699Z,20.45
2022-10-16T11:27:04.044Z,19.77
2022-10-16T11:29:30.878Z,18.41
2022-10-16T11:32:13.410Z,19.78
2022-10-16T11:34:46.113Z,20.53
2022-10-16T11:37:15.568Z,19.45
2022-10-16T11:39:43.364Z,20.14
2022-10-16T11:42:14.393Z,20.81
2022-10-16T11:44:49.932Z,20.87
2022-10-16T11:50:40.989Z,20.79
2022-10-16T11:53:25.784Z,20.69
2022-10-16T11:55:52.984Z,20.07
2022-10-16T11:58:36.133Z,19.66
2022-10-16T12:01:21.710Z,20.55
2022-10-16T12:04:15.808Z,20.52
2022-10-16T12:06:44.283Z,18.72
2022-10-16T12:09:40.405Z,20.44
2022-10-16T12:12:37.482Z,19.80
2022-10-16T12:15:22.227Z,20.40
2022-10-16T12:17:56.908Z,19.96
2022-10-16T12:20:34.157Z,20.18
2022-10-16T12:23:05.345Z,18.37
2022-10-16T12:25:36.709Z,19.38
2022-10-16T12:28:07.198Z,20.42
2022-10-16T12:30:36.605Z,20.00
2022-10-16T12:33:07.717Z,19.97
2022-10-16T12:35:45.429Z,19.98
2022-10-16T12:38:25.593Z,19.96
2022-10-16T12:41:06.337Z,20.10
2022-10-16T12:43:32.856Z,20.50
2022-10-16T12:46:22.256Z,20.07
2022-10-16T12:49:05.502Z,19.40
2022-10-16T12:51:32.825Z,20.39
2022-10-16T12:54:20.920Z,20.17
2022-10-16T12:56:50.393Z,20.20
2022-10-16T12:59:22.667Z,19.54
2022-10-16T13:02:14.072Z,20.07
2022-10-16T13:05:21.082Z,19.35
2022-10-16T13:08:28.958Z,19.81
2022-10-16T13:11:01.430Z,19.70
2022-10-16T13:13:35.765Z,19.64
2022-10-16T13:16:36.427Z,19.54
2022-10-16T13:19:28.147Z,19.40
2022-10-16T13:22:03.706Z,19.36
2022-10-16T13:24:55.106Z,19.31
2022-10-16T13:27:46.767Z,18.53
2022-10-16T13:30:30.807Z,18.50
2022-10-16T13:33:08.479Z,18.90
2022-10-16T13:35:35.789Z,18.74
2022-10-16T13:38:23.319Z,19.13
2022-10-16T13:41:13.139Z,19.13
2022-10-16T13:43:50.975Z,18.80
2022-10-16T13:46:21.960Z,18.83
2022-10-16T13:48:59.143Z,18.60
2022-10-16T13:51:25.876Z,18.71
2022-10-16T13:53:52.619Z,18.54
2022-10-16T13:56:21.266Z,18.54
2022-10-16T13:58:48.390Z,18.14
2022-10-16T14:01:20.218Z,18.38
2022-10-16T14:03:47.444Z,18.99
2022-10-16T14:06:17.122Z,17.38
2022-10-16T14:08:45.272Z,17.08
2022-10-16T14:11:11.877Z,18.95
2022-10-16T14:13:44.411Z,18.27
2022-10-16T14:16:18.245Z,18.18
2022-10-16T14:18:47.086Z,17.79
2022-10-16T14:21:14.609Z,17.30
2022-10-16T14:23:41.625Z,18.51
2022-10-16T14:26:11.210Z,18.75
2022-10-16T14:28:38.180Z,18.33
2022-10-16T14:31:24.920Z,18.64
2022-10-16T14:33:51.591Z,17.45
2022-10-16T14:36:19.598Z,17.20
2022-10-16T14:39:03.078Z,18.33
2022-10-16T14:41:31.057Z,18.19
2022-10-16T14:43:59.612Z,18.19
2022-10-16T14:46:39.673Z,18.17
2022-10-16T14:49:12.430Z,18.64
2022-10-16T14:51:42.025Z,18.23
2022-10-16T14:54:12.762Z,18.43
2022-10-16T14:56:48.890Z,17.90
2022-10-16T14:59:37.494Z,18.49
2022-10-16T15:02:19.216Z,17.75
2022-10-16T15:04:45.841Z,18.22
2022-10-16T15:07:12.387Z,17.39
2022-10-16T15:09:39.141Z,17.37
2022-10-16T15:12:05.926Z,16.51
2022-10-16T15:14:32.505Z,17.70
2022-10-16T15:16:59.086Z,17.88
2022-10-16T15:19:25.636Z,17.64
2022-10-16T15:21:53.325Z,16.28
2022-10-16T15:24:21.548Z,16.98
2022-10-16T15:26:48.341Z,17.26
2022-10-16T15:29:15.461Z,17.21
2022-10-16T15:31:45.026Z,15.67
2022-10-16T15:34:11.637Z,15.78
2022-10-16T15:36:38.953Z,15.79
2022-10-16T15:39:15.845Z,15.97
2022-10-16T15:41:42.771Z,16.73
2022-10-16T15:44:09.487Z,15.44
2022-10-16T15:46:37.174Z,16.32
2022-10-16T15:49:04.004Z,16.24
2022-10-16T15:51:30.589Z,16.33
2022-10-16T15:53:58.041Z,15.66
2022-10-16T15:56:26.396Z,14.62
2022-10-16T15:58:53.802Z,16.52
2022-10-16T16:01:20.534Z,15.67
2022-10-16T16:03:47.141Z,16.11
2022-10-16T16:06:14.094Z,16.10
2022-10-16T16:08:40.843Z,16.27
2022-10-16T16:11:12.610Z,15.71
2022-10-16T16:13:39.434Z,15.84
2022-10-16T16:16:08.055Z,14.68
2022-10-16T16:18:34.645Z,16.22
2022-10-16T16:21:01.222Z,15.88
2022-10-16T16:23:27.866Z,14.95
2022-10-16T16:26:14.302Z,16.00
2022-10-16T16:28:41.534Z,15.03
2022-10-16T16:31:08.308Z,14.96
2022-10-16T16:33:35.171Z,14.40
2022-10-16T16:36:02.885Z,14.27
2022-10-16T16:38:29.635Z,14.57
2022-10-16T16:40:56.580Z,15.58
2022-10-16T16:43:27.016Z,15.04
2022-10-16T16:45:55.007Z,13.96
2022-10-16T16:48:32.718Z,13.40
2022-10-16T16:51:06.655Z,15.14
2022-10-16T16:53:36.868Z,14.84
2022-10-16T16:56:04.963Z,14.88
2022-10-16T16:58:32.101Z,15.12
2022-10-16T17:01:19.362Z,15.06
2022-10-16T17:03:46.896Z,14.09
2022-10-16T17:06:14.061Z,14.76
2022-10-16T17:08:40.915Z,14.46
2022-10-16T17:11:07.673Z,15.08
2022-10-16T17:13:38.663Z,14.76
2022-10-16T17:16:06.325Z,15.18
2022-10-16T17:18:33.322Z,13.96
2022-10-16T17:21:04.378Z,15.45
2022-10-16T17:23:31.053Z,14.94
2022-10-16T17:25:58.080Z,14.84
2022-10-16T17:28:25.272Z,13.53
2022-10-16T17:30:52.005Z,14.49
2022-10-16T17:33:18.892Z,12.94
2022-10-16T17:35:46.503Z,14.25
2022-10-16T17:38:13.984Z,13.54
2022-10-16T17:40:40.918Z,13.49
2022-10-16T17:43:08.403Z,14.24
2022-10-16T17:45:39.140Z,15.09
2022-10-16T17:48:06.121Z,13.97
2022-10-16T17:50:32.826Z,13.16
2022-10-16T17:52:59.403Z,13.32
2022-10-16T17:55:27.292Z,14.98
2022-10-16T17:57:54.111Z,14.87
2022-10-16T18:00:20.734Z,14.44
2022-10-16T18:02:49.853Z,13.57
2022-10-16T18:05:29.871Z,14.58
2022-10-16T18:07:56.502Z,14.12
2022-10-16T18:10:23.130Z,13.31
2022-10-16T18:12:49.992Z,14.10
2022-10-16T18:15:16.727Z,13.33
2022-10-16T18:17:43.619Z,13.66
2022-10-16T18:20:10.802Z,15.01
2022-10-16T18:22:37.655Z,13.86
2022-10-16T18:25:05.530Z,15.31
2022-10-16T18:27:32.806Z,14.44
2022-10-16T18:30:00.181Z,14.52
2022-10-16T18:32:27.225Z,13.07
2022-10-16T18:34:54.613Z,13.55
2022-10-16T18:37:21.742Z,15.10
2022-10-16T18:39:51.147Z,13.67
2022-10-16T18:42:17.894Z,14.87
2022-10-16T18:44:46.840Z,14.88
2022-10-16T18:47:15.650Z,14.75
2022-10-16T18:49:44.356Z,13.33
2022-10-16T18:52:10.932Z,13.86
2022-10-16T18:54:37.624Z,15.07
2022-10-16T18:57:04.530Z,14.93
2022-10-16T18:59:42.378Z,14.89
2022-10-16T19:02:09.593Z,14.78
2022-10-16T19:04:36.163Z,15.00
2022-10-16T19:07:02.816Z,15.06
2022-10-16T19:09:29.470Z,14.81
2022-10-16T19:11:57.378Z,14.86
2022-10-16T19:14:25.168Z,14.90
2022-10-16T19:16:51.745Z,15.10
2022-10-16T19:19:18.590Z,14.34
2022-10-16T19:21:45.388Z,14.88
2022-10-16T19:24:15.377Z,15.51
2022-10-16T19:26:42.449Z,15.30
2022-10-16T19:29:09.876Z,14.90
2022-10-16T19:31:36.609Z,14.70
2022-10-16T19:34:04.228Z,14.90
2022-10-16T19:36:32.381Z,13.93
2022-10-16T19:39:06.819Z,14.73
2022-10-16T19:41:33.821Z,14.96
2022-10-16T19:44:04.254Z,14.52
2022-10-16T19:46:31.151Z,14.91
2022-10-16T19:48:59.079Z,14.92
2022-10-16T19:51:26.306Z,15.35
2022-10-16T19:53:57.468Z,15.23
2022-10-16T19:56:24.846Z,14.34
2022-10-16T19:58:51.780Z,15.23
2022-10-16T20:01:18.616Z,14.33
2022-10-16T20:03:45.968Z,15.28
2022-10-16T20:06:12.718Z,14.21
2022-10-16T20:08:39.946Z,14.15
2022-10-16T20:11:06.960Z,15.50
2022-10-16T20:13:36.209Z,15.23
2022-10-16T20:16:05.269Z,14.98
2022-10-16T20:18:31.927Z,15.17
2022-10-16T20:20:58.486Z,14.51
2022-10-16T20:23:25.279Z,14.41
2022-10-16T20:25:52.907Z,14.94
2022-10-16T20:28:22.610Z,14.78
2022-10-16T20:30:49.891Z,15.16
2022-10-16T20:33:16.709Z,15.16
2022-10-16T20:35:48.570Z,14.79
2022-10-16T20:38:15.783Z,14.39
2022-10-16T20:40:44.653Z,14.31
2022-10-16T20:43:15.547Z,14.00
2022-10-16T20:45:42.244Z,14.94
2022-10-16T20:48:08.895Z,14.47
2022-10-16T20:50:35.595Z,14.52
2022-10-16T20:53:02.295Z,15.37
2022-10-16T20:55:28.973Z,14.61
2022-10-16T20:57:56.122Z,14.68
2022-10-16T21:00:23.041Z,14.37
2022-10-16T21:02:50.399Z,15.18
2022-10-16T21:05:17.090Z,14.76
2022-10-16T21:07:43.792Z,14.77
2022-10-16T21:10:10.544Z,14.69
2022-10-16T21:12:37.206Z,14.55
2022-10-16T21:15:19.191Z,14.26
2022-10-16T21:17:45.848Z,14.48
2022-10-16T21:20:12.514Z,14.51
2022-10-16T21:22:39.169Z,13.49
2022-10-16T21:25:06.413Z,15.50
2022-10-16T21:27:38.106Z,14.72
2022-10-16T21:30:06.714Z,13.67
2022-10-16T21:32:35.981Z,15.12
2022-10-16T21:35:02.638Z,14.28
2022-10-16T21:37:29.271Z,14.62
2022-10-16T21:39:56.333Z,14.34
2022-10-16T21:42:23.015Z,14.39
2022-10-16T21:44:49.652Z,14.28
2022-10-16T21:47:16.242Z,15.10
2022-10-16T21:49:42.923Z,14.30
2022-10-16T21:52:09.577Z,14.53
2022-10-16T21:54:36.321Z,13.80
2022-10-16T21:59:30.846Z,14.22
2022-10-16T22:01:57.467Z,14.46
2022-10-16T22:04:24.164Z,14.48
2022-10-16T22:06:50.795Z,14.53
2022-10-16T22:09:17.427Z,15.06
2022-10-16T22:11:44.468Z,15.09
2022-10-16T22:14:13.180Z,14.75
2022-10-16T22:16:39.921Z,14.04
2022-10-16T22:19:09.326Z,13.42
2022-10-16T22:25:16.691Z,13.38
2022-10-16T22:27:43.320Z,13.47
2022-10-16T22:30:10.409Z,14.29
2022-10-16T22:32:37.083Z,13.99
2022-10-16T22:35:03.809Z,14.14
2022-10-16T22:37:30.604Z,14.34
2022-10-16T22:39:58.992Z,14.84
2022-10-16T22:42:27.606Z,14.87
2022-10-16T22:44:54.209Z,14.18
2022-10-16T22:47:20.847Z,12.90
2022-10-16T22:49:47.822Z,15.13
2022-10-16T22:52:14.436Z,13.79
2022-10-16T22:54:41.065Z,14.38
2022-10-16T22:57:07.640Z,14.24
2022-10-16T22:59:34.293Z,14.17
2022-10-16T23:02:00.922Z,13.92
2022-10-16T23:04:27.500Z,13.66
2022-10-16T23:06:54.451Z,13.49
2022-10-16T23:09:22.268Z,12.26
2022-10-16T23:11:48.890Z,13.49
2022-10-16T23:14:20.222Z,13.37
2022-10-16T23:16:46.925Z,13.34
2022-10-16T23:19:13.532Z,13.06
2022-10-16T23:21:40.145Z,13.26
2022-10-16T23:24:06.877Z,13.16
2022-10-16T23:26:33.793Z,13.56
2022-10-16T23:29:00.669Z,12.67
2022-10-16T23:31:27.593Z,12.89
2022-10-16T23:33:55.861Z,13.19
2022-10-16T23:36:22.668Z,13.20
2022-10-16T23:38:49.671Z,13.24
2022-10-16T23:41:16.448Z,12.79
2022-10-16T23:43:43.120Z,14.06
2022-10-16T23:46:13.418Z,13.00
2022-10-16T23:48:40.126Z,13.04
2022-10-16T23:51:09.835Z,11.88
2022-10-16T23:53:36.507Z,12.86
2022-10-16T23:56:03.163Z,12.32
2022-10-16T23:58:29.805Z,12.35
